sensor_id;sensor_type;location;lat;lon;timestamp;P1;durP1;ratioP1;P2;durP2;ratioP2
62941;SDS011;49042;47.318;19.874;2022-09-09T00:06:04;14.63;;;5.50;;
62941;SDS011;49042;47.318;19.874;2022-09-09T00:09:15;6.47;;;4.55;;
62941;SDS011;49042;47.318;19.874;2022-09-09T00:12:27;8.63;;;4.95;;
62941;SDS011;49042;47.318;19.874;2022-09-09T00:22:24;6.60;;;5.07;;
62941;SDS011;49042;47.318;19.874;2022-09-09T00:25:34;6.05;;;4.55;;
62941;SDS011;49042;47.318;19.874;2022-09-09T00:32:09;10.93;;;5.03;;
62941;SDS011;49042;47.318;19.874;2022-09-09T00:35:21;12.45;;;5.05;;
62941;SDS011;49042;47.318;19.874;2022-09-09T00:38:40;9.55;;;5.40;;
62941;SDS011;49042;47.318;19.874;2022-09-09T00:41:54;5.25;;;4.50;;
62941;SDS011;49042;47.318;19.874;2022-09-09T00:45:02;6.93;;;4.87;;
62941;SDS011;49042;47.318;19.874;2022-09-09T00:48:09;7.60;;;4.93;;
62941;SDS011;49042;47.318;19.874;2022-09-09T00:51:15;7.68;;;4.70;;
62941;SDS011;49042;47.318;19.874;2022-09-09T00:54:38;4.30;;;3.90;;
62941;SDS011;49042;47.318;19.874;2022-09-09T00:57:50;6.18;;;4.90;;
62941;SDS011;49042;47.318;19.874;2022-09-09T01:00:57;7.72;;;5.18;;
62941;SDS011;49042;47.318;19.874;2022-09-09T01:04:13;7.37;;;4.80;;
62941;SDS011;49042;47.318;19.874;2022-09-09T01:07:21;7.70;;;5.10;;
62941;SDS011;49042;47.318;19.874;2022-09-09T01:17:34;7.93;;;4.70;;
62941;SDS011;49042;47.318;19.874;2022-09-09T01:24:36;7.10;;;4.65;;
62941;SDS011;49042;47.318;19.874;2022-09-09T01:27:43;6.53;;;4.65;;
62941;SDS011;49042;47.318;19.874;2022-09-09T01:30:48;6.32;;;4.80;;
62941;SDS011;49042;47.318;19.874;2022-09-09T01:33:50;7.82;;;4.82;;
62941;SDS011;49042;47.318;19.874;2022-09-09T01:40:13;6.75;;;4.75;;
62941;SDS011;49042;47.318;19.874;2022-09-09T01:43:15;6.28;;;4.75;;
62941;SDS011;49042;47.318;19.874;2022-09-09T01:46:17;7.80;;;4.93;;
62941;SDS011;49042;47.318;19.874;2022-09-09T01:49:22;6.85;;;5.32;;
62941;SDS011;49042;47.318;19.874;2022-09-09T01:52:24;8.27;;;5.47;;
62941;SDS011;49042;47.318;19.874;2022-09-09T01:55:30;9.40;;;5.68;;
62941;SDS011;49042;47.318;19.874;2022-09-09T01:58:47;8.23;;;5.70;;
62941;SDS011;49042;47.318;19.874;2022-09-09T02:02:03;7.15;;;5.97;;
62941;SDS011;49042;47.318;19.874;2022-09-09T02:05:17;11.75;;;6.07;;
62941;SDS011;49042;47.318;19.874;2022-09-09T02:08:33;11.02;;;5.78;;
62941;SDS011;49042;47.318;19.874;2022-09-09T02:11:44;8.50;;;5.65;;
62941;SDS011;49042;47.318;19.874;2022-09-09T02:14:52;7.93;;;5.43;;
62941;SDS011;49042;47.318;19.874;2022-09-09T02:18:04;8.43;;;6.25;;
62941;SDS011;49042;47.318;19.874;2022-09-09T02:21:09;11.10;;;6.05;;
62941;SDS011;49042;47.318;19.874;2022-09-09T02:24:15;6.40;;;5.22;;
62941;SDS011;49042;47.318;19.874;2022-09-09T02:27:17;10.05;;;6.28;;
62941;SDS011;49042;47.318;19.874;2022-09-09T02:30:20;7.70;;;5.15;;
62941;SDS011;49042;47.318;19.874;2022-09-09T02:33:23;6.53;;;4.87;;
62941;SDS011;49042;47.318;19.874;2022-09-09T02:36:29;8.93;;;5.03;;
62941;SDS011;49042;47.318;19.874;2022-09-09T02:39:35;8.53;;;5.00;;
62941;SDS011;49042;47.318;19.874;2022-09-09T02:42:40;5.95;;;5.05;;
62941;SDS011;49042;47.318;19.874;2022-09-09T02:45:47;7.72;;;5.15;;
62941;SDS011;49042;47.318;19.874;2022-09-09T02:49:02;8.27;;;5.15;;
62941;SDS011;49042;47.318;19.874;2022-09-09T02:52:08;6.32;;;5.10;;
62941;SDS011;49042;47.318;19.874;2022-09-09T02:55:24;9.02;;;4.82;;
62941;SDS011;49042;47.318;19.874;2022-09-09T02:58:39;7.82;;;4.65;;
62941;SDS011;49042;47.318;19.874;2022-09-09T03:01:41;9.35;;;4.82;;
62941;SDS011;49042;47.318;19.874;2022-09-09T03:04:43;8.52;;;4.70;;
62941;SDS011;49042;47.318;19.874;2022-09-09T03:07:45;5.65;;;4.75;;
62941;SDS011;49042;47.318;19.874;2022-09-09T03:10:47;6.75;;;4.90;;
62941;SDS011;49042;47.318;19.874;2022-09-09T03:13:49;6.90;;;4.90;;
62941;SDS011;49042;47.318;19.874;2022-09-09T03:16:51;8.80;;;4.50;;
62941;SDS011;49042;47.318;19.874;2022-09-09T03:19:53;6.03;;;4.53;;
62941;SDS011;49042;47.318;19.874;2022-09-09T03:22:56;5.05;;;4.12;;
62941;SDS011;49042;47.318;19.874;2022-09-09T03:25:58;7.30;;;4.40;;
62941;SDS011;49042;47.318;19.874;2022-09-09T03:29:00;4.78;;;3.87;;
62941;SDS011;49042;47.318;19.874;2022-09-09T03:32:02;8.45;;;3.83;;
62941;SDS011;49042;47.318;19.874;2022-09-09T03:35:04;6.62;;;4.75;;
62941;SDS011;49042;47.318;19.874;2022-09-09T03:38:06;5.47;;;4.18;;
62941;SDS011;49042;47.318;19.874;2022-09-09T03:41:08;7.57;;;4.28;;
62941;SDS011;49042;47.318;19.874;2022-09-09T03:44:10;6.35;;;3.87;;
62941;SDS011;49042;47.318;19.874;2022-09-09T03:47:12;6.47;;;4.20;;
62941;SDS011;49042;47.318;19.874;2022-09-09T03:50:14;7.00;;;4.22;;
62941;SDS011;49042;47.318;19.874;2022-09-09T03:53:17;7.28;;;3.80;;
62941;SDS011;49042;47.318;19.874;2022-09-09T03:56:20;4.78;;;3.92;;
62941;SDS011;49042;47.318;19.874;2022-09-09T03:59:23;5.40;;;4.00;;
62941;SDS011;49042;47.318;19.874;2022-09-09T04:02:24;4.03;;;3.30;;
62941;SDS011;49042;47.318;19.874;2022-09-09T04:05:26;4.57;;;3.58;;
62941;SDS011;49042;47.318;19.874;2022-09-09T04:08:28;4.75;;;3.67;;
62941;SDS011;49042;47.318;19.874;2022-09-09T04:11:32;8.02;;;4.15;;
62941;SDS011;49042;47.318;19.874;2022-09-09T04:14:34;8.23;;;4.12;;
62941;SDS011;49042;47.318;19.874;2022-09-09T04:17:36;7.10;;;3.60;;
62941;SDS011;49042;47.318;19.874;2022-09-09T04:20:38;5.55;;;4.15;;
62941;SDS011;49042;47.318;19.874;2022-09-09T04:23:40;4.87;;;3.58;;
62941;SDS011;49042;47.318;19.874;2022-09-09T04:26:42;5.82;;;3.80;;
62941;SDS011;49042;47.318;19.874;2022-09-09T04:29:44;5.28;;;3.60;;
62941;SDS011;49042;47.318;19.874;2022-09-09T04:32:46;7.60;;;3.80;;
62941;SDS011;49042;47.318;19.874;2022-09-09T04:35:48;7.07;;;4.07;;
62941;SDS011;49042;47.318;19.874;2022-09-09T04:38:51;6.35;;;3.92;;
62941;SDS011;49042;47.318;19.874;2022-09-09T04:41:53;4.55;;;3.83;;
62941;SDS011;49042;47.318;19.874;2022-09-09T04:44:54;6.35;;;4.40;;
62941;SDS011;49042;47.318;19.874;2022-09-09T04:47:56;5.85;;;4.28;;
62941;SDS011;49042;47.318;19.874;2022-09-09T04:50:59;6.60;;;4.12;;
62941;SDS011;49042;47.318;19.874;2022-09-09T04:54:08;5.75;;;4.30;;
62941;SDS011;49042;47.318;19.874;2022-09-09T04:57:10;6.15;;;3.58;;
62941;SDS011;49042;47.318;19.874;2022-09-09T05:00:18;5.90;;;3.92;;
62941;SDS011;49042;47.318;19.874;2022-09-09T05:03:20;5.55;;;3.65;;
62941;SDS011;49042;47.318;19.874;2022-09-09T05:06:22;4.95;;;3.97;;
62941;SDS011;49042;47.318;19.874;2022-09-09T05:09:23;4.95;;;3.67;;
62941;SDS011;49042;47.318;19.874;2022-09-09T05:12:25;4.00;;;3.60;;
62941;SDS011;49042;47.318;19.874;2022-09-09T05:15:27;8.23;;;3.62;;
62941;SDS011;49042;47.318;19.874;2022-09-09T05:18:29;4.18;;;3.30;;
62941;SDS011;49042;47.318;19.874;2022-09-09T05:21:30;3.90;;;3.50;;
62941;SDS011;49042;47.318;19.874;2022-09-09T05:24:32;4.43;;;3.40;;
62941;SDS011;49042;47.318;19.874;2022-09-09T05:27:34;3.65;;;3.03;;
62941;SDS011;49042;47.318;19.874;2022-09-09T05:30:36;5.22;;;3.60;;
62941;SDS011;49042;47.318;19.874;2022-09-09T05:33:38;6.18;;;3.37;;
62941;SDS011;49042;47.318;19.874;2022-09-09T05:36:44;4.57;;;3.00;;
62941;SDS011;49042;47.318;19.874;2022-09-09T05:39:46;5.12;;;3.25;;
62941;SDS011;49042;47.318;19.874;2022-09-09T05:42:47;6.87;;;2.90;;
62941;SDS011;49042;47.318;19.874;2022-09-09T05:45:58;3.33;;;2.87;;
62941;SDS011;49042;47.318;19.874;2022-09-09T05:49:11;4.78;;;2.97;;
62941;SDS011;49042;47.318;19.874;2022-09-09T05:52:13;3.60;;;2.92;;
62941;SDS011;49042;47.318;19.874;2022-09-09T05:55:15;5.68;;;3.05;;
62941;SDS011;49042;47.318;19.874;2022-09-09T05:58:17;3.50;;;2.90;;
62941;SDS011;49042;47.318;19.874;2022-09-09T06:01:19;5.43;;;3.20;;
62941;SDS011;49042;47.318;19.874;2022-09-09T06:04:23;5.35;;;2.83;;
62941;SDS011;49042;47.318;19.874;2022-09-09T06:07:25;6.55;;;2.85;;
62941;SDS011;49042;47.318;19.874;2022-09-09T06:10:27;5.93;;;3.03;;
62941;SDS011;49042;47.318;19.874;2022-09-09T06:13:29;3.00;;;2.70;;
62941;SDS011;49042;47.318;19.874;2022-09-09T06:16:32;5.15;;;3.12;;
62941;SDS011;49042;47.318;19.874;2022-09-09T06:19:35;5.35;;;2.50;;
62941;SDS011;49042;47.318;19.874;2022-09-09T06:22:38;3.37;;;2.20;;
62941;SDS011;49042;47.318;19.874;2022-09-09T06:25:41;4.22;;;2.20;;
62941;SDS011;49042;47.318;19.874;2022-09-09T06:28:44;2.45;;;2.20;;
62941;SDS011;49042;47.318;19.874;2022-09-09T06:31:47;1.90;;;1.70;;
62941;SDS011;49042;47.318;19.874;2022-09-09T06:34:49;2.80;;;1.50;;
62941;SDS011;49042;47.318;19.874;2022-09-09T06:37:51;4.03;;;1.62;;
62941;SDS011;49042;47.318;19.874;2022-09-09T06:40:56;3.87;;;1.50;;
62941;SDS011;49042;47.318;19.874;2022-09-09T06:43:59;1.92;;;1.62;;
62941;SDS011;49042;47.318;19.874;2022-09-09T06:47:02;3.90;;;1.85;;
62941;SDS011;49042;47.318;19.874;2022-09-09T06:50:04;2.50;;;2.00;;
62941;SDS011;49042;47.318;19.874;2022-09-09T06:53:07;2.65;;;1.87;;
62941;SDS011;49042;47.318;19.874;2022-09-09T06:56:19;6.47;;;1.80;;
62941;SDS011;49042;47.318;19.874;2022-09-09T06:59:24;1.60;;;1.50;;
62941;SDS011;49042;47.318;19.874;2022-09-09T07:02:26;1.80;;;1.40;;
62941;SDS011;49042;47.318;19.874;2022-09-09T07:05:27;3.30;;;1.42;;
62941;SDS011;49042;47.318;19.874;2022-09-09T07:08:29;5.28;;;1.70;;
62941;SDS011;49042;47.318;19.874;2022-09-09T07:11:33;5.37;;;1.30;;
62941;SDS011;49042;47.318;19.874;2022-09-09T07:14:43;2.62;;;1.70;;
62941;SDS011;49042;47.318;19.874;2022-09-09T07:17:44;1.77;;;1.40;;
62941;SDS011;49042;47.318;19.874;2022-09-09T07:20:53;7.55;;;1.25;;
62941;SDS011;49042;47.318;19.874;2022-09-09T07:23:56;4.20;;;1.30;;
62941;SDS011;49042;47.318;19.874;2022-09-09T07:26:58;1.30;;;1.20;;
62941;SDS011;49042;47.318;19.874;2022-09-09T07:30:00;1.20;;;1.10;;
62941;SDS011;49042;47.318;19.874;2022-09-09T07:33:03;1.65;;;1.17;;
62941;SDS011;49042;47.318;19.874;2022-09-09T07:36:06;3.25;;;1.20;;
62941;SDS011;49042;47.318;19.874;2022-09-09T07:39:10;2.58;;;1.20;;
62941;SDS011;49042;47.318;19.874;2022-09-09T07:42:14;3.08;;;1.10;;
62941;SDS011;49042;47.318;19.874;2022-09-09T07:45:16;3.70;;;1.10;;
62941;SDS011;49042;47.318;19.874;2022-09-09T07:48:18;1.70;;;1.20;;
62941;SDS011;49042;47.318;19.874;2022-09-09T07:51:23;1.10;;;1.00;;
62941;SDS011;49042;47.318;19.874;2022-09-09T07:54:29;4.72;;;1.20;;
62941;SDS011;49042;47.318;19.874;2022-09-09T07:57:33;3.80;;;1.08;;
62941;SDS011;49042;47.318;19.874;2022-09-09T08:00:34;1.80;;;1.17;;
62941;SDS011;49042;47.318;19.874;2022-09-09T08:03:36;3.37;;;1.10;;
62941;SDS011;49042;47.318;19.874;2022-09-09T08:06:39;3.33;;;1.10;;
62941;SDS011;49042;47.318;19.874;2022-09-09T08:09:41;2.08;;;1.30;;
62941;SDS011;49042;47.318;19.874;2022-09-09T08:12:43;2.90;;;1.15;;
62941;SDS011;49042;47.318;19.874;2022-09-09T08:16:09;2.80;;;1.30;;
62941;SDS011;49042;47.318;19.874;2022-09-09T08:19:13;10.82;;;1.10;;
62941;SDS011;49042;47.318;19.874;2022-09-09T08:22:16;2.03;;;0.98;;
62941;SDS011;49042;47.318;19.874;2022-09-09T08:25:18;2.45;;;1.12;;
62941;SDS011;49042;47.318;19.874;2022-09-09T08:28:19;4.03;;;1.20;;
62941;SDS011;49042;47.318;19.874;2022-09-09T08:31:22;5.32;;;1.20;;
62941;SDS011;49042;47.318;19.874;2022-09-09T08:34:26;5.55;;;1.20;;
62941;SDS011;49042;47.318;19.874;2022-09-09T08:37:28;3.87;;;1.30;;
62941;SDS011;49042;47.318;19.874;2022-09-09T08:40:31;2.55;;;1.10;;
62941;SDS011;49042;47.318;19.874;2022-09-09T08:43:38;2.60;;;1.12;;
62941;SDS011;49042;47.318;19.874;2022-09-09T08:47:27;3.75;;;1.08;;
62941;SDS011;49042;47.318;19.874;2022-09-09T08:50:30;2.58;;;1.10;;
62941;SDS011;49042;47.318;19.874;2022-09-09T08:53:42;2.97;;;1.30;;
62941;SDS011;49042;47.318;19.874;2022-09-09T08:56:47;3.20;;;0.90;;
62941;SDS011;49042;47.318;19.874;2022-09-09T08:59:51;2.42;;;1.20;;
62941;SDS011;49042;47.318;19.874;2022-09-09T09:12:53;3.00;;;0.98;;
62941;SDS011;49042;47.318;19.874;2022-09-09T09:15:56;1.92;;;0.90;;
62941;SDS011;49042;47.318;19.874;2022-09-09T09:19:02;1.75;;;0.90;;
62941;SDS011;49042;47.318;19.874;2022-09-09T09:22:06;5.43;;;0.98;;
62941;SDS011;49042;47.318;19.874;2022-09-09T09:25:16;2.15;;;1.00;;
62941;SDS011;49042;47.318;19.874;2022-09-09T09:28:24;6.32;;;1.05;;
62941;SDS011;49042;47.318;19.874;2022-09-09T09:31:27;10.65;;;1.00;;
62941;SDS011;49042;47.318;19.874;2022-09-09T09:34:28;2.25;;;0.85;;
62941;SDS011;49042;47.318;19.874;2022-09-09T09:37:33;7.53;;;0.80;;
62941;SDS011;49042;47.318;19.874;2022-09-09T09:40:58;3.97;;;1.23;;
62941;SDS011;49042;47.318;19.874;2022-09-09T09:44:01;2.40;;;0.98;;
62941;SDS011;49042;47.318;19.874;2022-09-09T09:47:14;4.78;;;1.25;;
62941;SDS011;49042;47.318;19.874;2022-09-09T09:50:17;9.68;;;1.15;;
62941;SDS011;49042;47.318;19.874;2022-09-09T09:53:28;4.30;;;0.93;;
62941;SDS011;49042;47.318;19.874;2022-09-09T09:56:34;1.37;;;1.00;;
62941;SDS011;49042;47.318;19.874;2022-09-09T09:59:36;3.37;;;1.27;;
62941;SDS011;49042;47.318;19.874;2022-09-09T10:02:42;1.67;;;1.10;;
62941;SDS011;49042;47.318;19.874;2022-09-09T10:05:45;1.73;;;1.30;;
62941;SDS011;49042;47.318;19.874;2022-09-09T10:08:48;5.18;;;1.48;;
62941;SDS011;49042;47.318;19.874;2022-09-09T10:11:55;6.72;;;1.75;;
62941;SDS011;49042;47.318;19.874;2022-09-09T10:15:05;4.12;;;1.95;;
62941;SDS011;49042;47.318;19.874;2022-09-09T10:45:07;3.78;;;1.40;;
62941;SDS011;49042;47.318;19.874;2022-09-09T10:57:54;2.53;;;1.75;;
62941;SDS011;49042;47.318;19.874;2022-09-09T11:01:00;3.17;;;1.62;;
62941;SDS011;49042;47.318;19.874;2022-09-09T11:04:15;2.35;;;1.37;;
62941;SDS011;49042;47.318;19.874;2022-09-09T11:10:45;11.02;;;1.87;;
62941;SDS011;49042;47.318;19.874;2022-09-09T11:17:22;6.95;;;2.00;;
62941;SDS011;49042;47.318;19.874;2022-09-09T11:20:28;8.05;;;1.17;;
62941;SDS011;49042;47.318;19.874;2022-09-09T11:23:34;3.92;;;1.17;;
62941;SDS011;49042;47.318;19.874;2022-09-09T11:26:51;4.22;;;1.15;;
62941;SDS011;49042;47.318;19.874;2022-09-09T11:40:34;1.10;;;1.00;;
62941;SDS011;49042;47.318;19.874;2022-09-09T11:43:43;1.62;;;1.08;;
62941;SDS011;49042;47.318;19.874;2022-09-09T11:46:49;1.65;;;1.05;;
62941;SDS011;49042;47.318;19.874;2022-09-09T11:49:53;1.52;;;1.35;;
62941;SDS011;49042;47.318;19.874;2022-09-09T11:56:23;4.00;;;1.70;;
62941;SDS011;49042;47.318;19.874;2022-09-09T11:59:32;7.93;;;7.10;;
62941;SDS011;49042;47.318;19.874;2022-09-09T12:02:34;3.42;;;1.60;;
62941;SDS011;49042;47.318;19.874;2022-09-09T12:05:39;9.95;;;1.70;;
62941;SDS011;49042;47.318;19.874;2022-09-09T12:08:45;4.85;;;1.40;;
62941;SDS011;49042;47.318;19.874;2022-09-09T12:11:52;2.97;;;1.58;;
62941;SDS011;49042;47.318;19.874;2022-09-09T12:18:14;1.40;;;0.98;;
62941;SDS011;49042;47.318;19.874;2022-09-09T12:21:30;2.53;;;1.42;;
62941;SDS011;49042;47.318;19.874;2022-09-09T12:24:41;1.70;;;1.48;;
62941;SDS011;49042;47.318;19.874;2022-09-09T12:27:58;2.58;;;1.65;;
62941;SDS011;49042;47.318;19.874;2022-09-09T12:31:10;2.15;;;1.60;;
62941;SDS011;49042;47.318;19.874;2022-09-09T12:37:38;3.28;;;1.80;;
62941;SDS011;49042;47.318;19.874;2022-09-09T12:40:41;2.97;;;1.58;;
62941;SDS011;49042;47.318;19.874;2022-09-09T12:43:42;3.87;;;1.67;;
62941;SDS011;49042;47.318;19.874;2022-09-09T12:46:44;1.62;;;1.52;;
62941;SDS011;49042;47.318;19.874;2022-09-09T12:49:48;1.92;;;1.40;;
62941;SDS011;49042;47.318;19.874;2022-09-09T12:52:51;3.30;;;1.80;;
62941;SDS011;49042;47.318;19.874;2022-09-09T12:55:57;6.00;;;1.80;;
62941;SDS011;49042;47.318;19.874;2022-09-09T12:59:01;1.58;;;1.48;;
62941;SDS011;49042;47.318;19.874;2022-09-09T13:02:11;1.85;;;1.55;;
62941;SDS011;49042;47.318;19.874;2022-09-09T13:08:36;2.08;;;1.40;;
62941;SDS011;49042;47.318;19.874;2022-09-09T13:11:42;1.58;;;1.27;;
62941;SDS011;49042;47.318;19.874;2022-09-09T13:14:51;3.05;;;1.30;;
62941;SDS011;49042;47.318;19.874;2022-09-09T13:17:58;1.45;;;1.20;;
62941;SDS011;49042;47.318;19.874;2022-09-09T13:21:03;4.18;;;1.80;;
62941;SDS011;49042;47.318;19.874;2022-09-09T13:24:06;6.12;;;1.62;;
62941;SDS011;49042;47.318;19.874;2022-09-09T13:27:34;1.62;;;1.50;;
62941;SDS011;49042;47.318;19.874;2022-09-09T13:30:40;3.33;;;1.55;;
62941;SDS011;49042;47.318;19.874;2022-09-09T13:33:44;4.60;;;1.87;;
62941;SDS011;49042;47.318;19.874;2022-09-09T13:36:46;1.95;;;1.60;;
62941;SDS011;49042;47.318;19.874;2022-09-09T13:39:53;5.43;;;2.00;;
62941;SDS011;49042;47.318;19.874;2022-09-09T13:42:56;1.73;;;1.23;;
62941;SDS011;49042;47.318;19.874;2022-09-09T13:46:01;2.55;;;1.30;;
62941;SDS011;49042;47.318;19.874;2022-09-09T13:49:22;1.83;;;1.70;;
62941;SDS011;49042;47.318;19.874;2022-09-09T13:52:24;1.95;;;1.65;;
62941;SDS011;49042;47.318;19.874;2022-09-09T13:55:28;3.55;;;1.90;;
62941;SDS011;49042;47.318;19.874;2022-09-09T13:58:31;2.50;;;1.50;;
62941;SDS011;49042;47.318;19.874;2022-09-09T14:01:33;2.12;;;1.70;;
62941;SDS011;49042;47.318;19.874;2022-09-09T14:04:36;4.53;;;2.60;;
62941;SDS011;49042;47.318;19.874;2022-09-09T14:07:38;3.00;;;2.53;;
62941;SDS011;49042;47.318;19.874;2022-09-09T14:10:42;5.78;;;2.53;;
62941;SDS011;49042;47.318;19.874;2022-09-09T14:13:43;2.35;;;2.15;;
62941;SDS011;49042;47.318;19.874;2022-09-09T14:16:45;5.00;;;2.60;;
62941;SDS011;49042;47.318;19.874;2022-09-09T14:19:47;7.60;;;3.30;;
62941;SDS011;49042;47.318;19.874;2022-09-09T14:22:49;8.52;;;3.42;;
62941;SDS011;49042;47.318;19.874;2022-09-09T14:25:51;9.90;;;2.92;;
62941;SDS011;49042;47.318;19.874;2022-09-09T14:28:56;4.68;;;2.87;;
62941;SDS011;49042;47.318;19.874;2022-09-09T14:31:58;4.18;;;2.53;;
62941;SDS011;49042;47.318;19.874;2022-09-09T14:35:02;3.67;;;2.75;;
62941;SDS011;49042;47.318;19.874;2022-09-09T14:38:07;4.87;;;2.70;;
62941;SDS011;49042;47.318;19.874;2022-09-09T14:41:10;5.37;;;1.90;;
62941;SDS011;49042;47.318;19.874;2022-09-09T14:44:13;3.08;;;2.40;;
62941;SDS011;49042;47.318;19.874;2022-09-09T14:47:16;6.80;;;2.83;;
62941;SDS011;49042;47.318;19.874;2022-09-09T14:50:18;6.75;;;2.85;;
62941;SDS011;49042;47.318;19.874;2022-09-09T14:53:21;6.68;;;2.78;;
62941;SDS011;49042;47.318;19.874;2022-09-09T14:56:24;3.85;;;2.95;;
62941;SDS011;49042;47.318;19.874;2022-09-09T14:59:28;4.90;;;2.70;;
62941;SDS011;49042;47.318;19.874;2022-09-09T15:02:29;3.25;;;2.40;;
62941;SDS011;49042;47.318;19.874;2022-09-09T15:05:31;3.62;;;2.67;;
62941;SDS011;49042;47.318;19.874;2022-09-09T15:08:33;3.87;;;2.42;;
62941;SDS011;49042;47.318;19.874;2022-09-09T15:11:42;3.92;;;2.70;;
62941;SDS011;49042;47.318;19.874;2022-09-09T15:14:45;4.45;;;2.62;;
62941;SDS011;49042;47.318;19.874;2022-09-09T15:17:47;3.35;;;2.50;;
62941;SDS011;49042;47.318;19.874;2022-09-09T15:20:49;4.22;;;2.83;;
62941;SDS011;49042;47.318;19.874;2022-09-09T15:23:51;6.57;;;2.80;;
62941;SDS011;49042;47.318;19.874;2022-09-09T15:26:53;6.93;;;3.22;;
62941;SDS011;49042;47.318;19.874;2022-09-09T15:29:55;3.45;;;2.83;;
62941;SDS011;49042;47.318;19.874;2022-09-09T15:32:59;6.10;;;2.65;;
62941;SDS011;49042;47.318;19.874;2022-09-09T15:36:01;4.25;;;2.83;;
62941;SDS011;49042;47.318;19.874;2022-09-09T15:39:03;5.40;;;2.37;;
62941;SDS011;49042;47.318;19.874;2022-09-09T15:42:07;6.68;;;2.65;;
62941;SDS011;49042;47.318;19.874;2022-09-09T15:45:09;3.33;;;2.45;;
62941;SDS011;49042;47.318;19.874;2022-09-09T15:48:11;3.65;;;3.25;;
62941;SDS011;49042;47.318;19.874;2022-09-09T15:51:13;7.95;;;3.95;;
62941;SDS011;49042;47.318;19.874;2022-09-09T15:54:35;31.83;;;6.95;;
62941;SDS011;49042;47.318;19.874;2022-09-09T15:57:40;5.28;;;3.45;;
62941;SDS011;49042;47.318;19.874;2022-09-09T16:00:42;5.97;;;4.10;;
62941;SDS011;49042;47.318;19.874;2022-09-09T16:03:43;4.90;;;4.35;;
62941;SDS011;49042;47.318;19.874;2022-09-09T16:06:51;6.18;;;4.30;;
62941;SDS011;49042;47.318;19.874;2022-09-09T16:09:54;4.60;;;4.12;;
62941;SDS011;49042;47.318;19.874;2022-09-09T16:12:56;5.57;;;4.45;;
62941;SDS011;49042;47.318;19.874;2022-09-09T16:15:58;11.95;;;5.75;;
62941;SDS011;49042;47.318;19.874;2022-09-09T16:19:03;11.88;;;5.60;;
62941;SDS011;49042;47.318;19.874;2022-09-09T16:22:10;11.60;;;6.62;;
62941;SDS011;49042;47.318;19.874;2022-09-09T16:25:12;10.40;;;5.78;;
62941;SDS011;49042;47.318;19.874;2022-09-09T16:28:14;9.70;;;5.20;;
62941;SDS011;49042;47.318;19.874;2022-09-09T16:31:17;6.75;;;5.20;;
62941;SDS011;49042;47.318;19.874;2022-09-09T16:34:21;10.32;;;5.40;;
62941;SDS011;49042;47.318;19.874;2022-09-09T16:37:23;8.43;;;5.15;;
62941;SDS011;49042;47.318;19.874;2022-09-09T16:40:25;7.65;;;5.28;;
62941;SDS011;49042;47.318;19.874;2022-09-09T16:43:27;10.98;;;5.18;;
62941;SDS011;49042;47.318;19.874;2022-09-09T16:46:30;11.70;;;5.57;;
62941;SDS011;49042;47.318;19.874;2022-09-09T16:49:33;10.23;;;6.87;;
62941;SDS011;49042;47.318;19.874;2022-09-09T16:52:35;10.55;;;5.70;;
62941;SDS011;49042;47.318;19.874;2022-09-09T16:55:40;8.18;;;6.32;;
62941;SDS011;49042;47.318;19.874;2022-09-09T16:58:42;12.13;;;6.03;;
62941;SDS011;49042;47.318;19.874;2022-09-09T17:01:47;10.25;;;6.32;;
62941;SDS011;49042;47.318;19.874;2022-09-09T17:04:51;10.63;;;6.80;;
62941;SDS011;49042;47.318;19.874;2022-09-09T17:07:53;26.77;;;8.10;;
62941;SDS011;49042;47.318;19.874;2022-09-09T17:10:58;18.47;;;6.87;;
62941;SDS011;49042;47.318;19.874;2022-09-09T17:14:00;13.68;;;7.30;;
62941;SDS011;49042;47.318;19.874;2022-09-09T17:17:02;14.32;;;8.23;;
62941;SDS011;49042;47.318;19.874;2022-09-09T17:20:25;14.70;;;8.98;;
62941;SDS011;49042;47.318;19.874;2022-09-09T17:23:27;19.45;;;11.60;;
62941;SDS011;49042;47.318;19.874;2022-09-09T17:26:30;21.37;;;11.05;;
62941;SDS011;49042;47.318;19.874;2022-09-09T17:29:34;20.08;;;10.55;;
62941;SDS011;49042;47.318;19.874;2022-09-09T17:32:37;15.15;;;8.77;;
62941;SDS011;49042;47.318;19.874;2022-09-09T17:35:39;14.02;;;8.77;;
62941;SDS011;49042;47.318;19.874;2022-09-09T17:38:45;18.93;;;9.93;;
62941;SDS011;49042;47.318;19.874;2022-09-09T17:41:48;16.35;;;8.85;;
62941;SDS011;49042;47.318;19.874;2022-09-09T17:44:50;15.60;;;9.45;;
62941;SDS011;49042;47.318;19.874;2022-09-09T17:47:54;14.93;;;8.80;;
62941;SDS011;49042;47.318;19.874;2022-09-09T17:50:59;16.48;;;9.68;;
62941;SDS011;49042;47.318;19.874;2022-09-09T17:54:05;17.10;;;9.80;;
62941;SDS011;49042;47.318;19.874;2022-09-09T17:57:11;16.02;;;9.25;;
62941;SDS011;49042;47.318;19.874;2022-09-09T18:00:13;19.55;;;9.75;;
62941;SDS011;49042;47.318;19.874;2022-09-09T18:03:15;12.95;;;8.10;;
62941;SDS011;49042;47.318;19.874;2022-09-09T18:06:19;10.13;;;7.55;;
62941;SDS011;49042;47.318;19.874;2022-09-09T18:09:25;7.47;;;6.60;;
62941;SDS011;49042;47.318;19.874;2022-09-09T18:12:27;13.68;;;6.57;;
62941;SDS011;49042;47.318;19.874;2022-09-09T18:15:30;11.00;;;6.30;;
62941;SDS011;49042;47.318;19.874;2022-09-09T18:18:49;6.57;;;5.87;;
62941;SDS011;49042;47.318;19.874;2022-09-09T18:21:52;9.75;;;6.00;;
62941;SDS011;49042;47.318;19.874;2022-09-09T18:28:01;10.05;;;6.45;;
62941;SDS011;49042;47.318;19.874;2022-09-09T18:31:04;5.68;;;5.12;;
62941;SDS011;49042;47.318;19.874;2022-09-09T18:34:09;6.00;;;5.40;;
62941;SDS011;49042;47.318;19.874;2022-09-09T18:37:12;7.45;;;5.57;;
62941;SDS011;49042;47.318;19.874;2022-09-09T18:40:15;10.35;;;5.68;;
62941;SDS011;49042;47.318;19.874;2022-09-09T18:43:19;17.52;;;6.12;;
62941;SDS011;49042;47.318;19.874;2022-09-09T18:46:21;6.78;;;5.10;;
62941;SDS011;49042;47.318;19.874;2022-09-09T18:49:24;8.65;;;5.95;;
62941;SDS011;49042;47.318;19.874;2022-09-09T18:52:27;9.88;;;5.15;;
62941;SDS011;49042;47.318;19.874;2022-09-09T18:55:28;5.82;;;5.22;;
62941;SDS011;49042;47.318;19.874;2022-09-09T18:58:31;7.03;;;5.43;;
62941;SDS011;49042;47.318;19.874;2022-09-09T19:01:35;11.50;;;5.22;;
62941;SDS011;49042;47.318;19.874;2022-09-09T19:04:37;6.95;;;5.68;;
62941;SDS011;49042;47.318;19.874;2022-09-09T19:07:39;5.80;;;5.20;;
62941;SDS011;49042;47.318;19.874;2022-09-09T19:10:42;6.20;;;5.37;;
62941;SDS011;49042;47.318;19.874;2022-09-09T19:14:05;6.05;;;5.45;;
62941;SDS011;49042;47.318;19.874;2022-09-09T19:17:08;8.13;;;5.82;;
62941;SDS011;49042;47.318;19.874;2022-09-09T19:20:10;14.95;;;5.80;;
62941;SDS011;49042;47.318;19.874;2022-09-09T19:23:13;7.80;;;5.57;;
62941;SDS011;49042;47.318;19.874;2022-09-09T19:26:15;7.12;;;5.68;;
62941;SDS011;49042;47.318;19.874;2022-09-09T19:29:19;6.72;;;5.75;;
62941;SDS011;49042;47.318;19.874;2022-09-09T19:32:23;7.78;;;5.78;;
62941;SDS011;49042;47.318;19.874;2022-09-09T19:35:45;6.47;;;5.75;;
62941;SDS011;49042;47.318;19.874;2022-09-09T19:38:47;7.60;;;5.22;;
62941;SDS011;49042;47.318;19.874;2022-09-09T19:41:49;6.05;;;5.45;;
62941;SDS011;49042;47.318;19.874;2022-09-09T19:44:51;10.40;;;5.62;;
62941;SDS011;49042;47.318;19.874;2022-09-09T19:47:53;6.15;;;5.22;;
62941;SDS011;49042;47.318;19.874;2022-09-09T19:50:55;5.90;;;5.25;;
62941;SDS011;49042;47.318;19.874;2022-09-09T19:57:08;5.90;;;5.30;;
62941;SDS011;49042;47.318;19.874;2022-09-09T20:00:11;6.62;;;5.37;;
62941;SDS011;49042;47.318;19.874;2022-09-09T20:03:13;10.27;;;4.93;;
62941;SDS011;49042;47.318;19.874;2022-09-09T20:06:21;7.15;;;5.37;;
62941;SDS011;49042;47.318;19.874;2022-09-09T20:09:24;7.82;;;5.20;;